Terminal Aerodrome Forecast
Issued by NWS

Home | Current Version | Previous Version | Text Only | Print | Product List | Glossary On
Versions: 1 2 3 4 5 6 7 8 9 10 11 12 13 14 15 16 17 18 19 20 21 22 23 24
205
FTUS46 KSEW 210904 AAA
TAFSEA
TAF AMD
KSEA 210904Z 2109/2212 18012G20KT P6SM -RA BKN035 OVC050
     FM211100 20014G22KT P6SM VCSH SCT015 BKN025 BKN040
     FM211700 22011KT P6SM VCSH SCT030 BKN050
     FM212100 24007KT P6SM -SHRA BKN035 OVC050
     FM220100 35007KT P6SM -SHRA SCT025 BKN040 OVC060
     FM220400 02006KT P6SM VCSH SCT040 BKN060
     FM220600 04006KT P6SM SCT200=

USA.gov is the U.S. government's official web portal to all federal, state and local government web resources and services.